Time,TemperatureF,DewpointF,PressureIn,WindDirection,WindDirectionDegrees,WindSpeedMPH,WindSpeedGustMPH,Humidity,HourlyPrecipIn,Conditions,Clouds,dailyrainin,SolarRadiationWatts/m^2,SoftwareType,DateUTC
2013-01-15 00:02:00,36.0,34.0,30.60,WSW,243,6.0,13.0,95,-99.99,,,0.00,0.000000,,2013-01-15 08:02:00,
2013-01-15 00:12:00,36.0,34.0,30.60,WSW,243,6.0,13.0,95,-99.99,,,0.00,0.000000,,2013-01-15 08:12:00,
2013-01-15 00:42:00,36.0,35.0,30.61,West,267,7.0,12.0,96,-99.99,,,-99.99,0.000000,,2013-01-15 08:42:00,
2013-01-15 00:53:00,36.0,35.0,30.61,West,267,7.0,12.0,96,-99.99,,,-99.99,0.000000,,2013-01-15 08:53:00,
2013-01-15 01:02:00,36.0,35.0,30.61,West,267,7.0,12.0,96,-99.99,,,-99.99,0.000000,,2013-01-15 09:02:00,
2013-01-15 01:11:00,36.0,35.0,30.61,West,267,7.0,12.0,96,-99.99,,,-99.99,0.000000,,2013-01-15 09:11:00,
2013-01-15 01:42:00,36.0,35.0,30.61,West,270,7.0,12.0,96,-99.99,,,0.00,0.000000,,2013-01-15 09:42:00,
2013-01-15 01:52:00,36.0,35.0,30.61,West,270,7.0,12.0,96,-99.99,,,0.00,0.000000,,2013-01-15 09:52:00,
2013-01-15 02:02:00,36.0,35.0,30.61,West,270,7.0,12.0,96,-99.99,,,0.00,0.000000,,2013-01-15 10:02:00,
2013-01-15 02:11:00,36.0,35.0,30.61,West,270,7.0,12.0,96,-99.99,,,0.00,0.000000,,2013-01-15 10:11:00,
2013-01-15 02:42:00,36.0,35.0,30.62,West,262,7.0,13.0,97,-99.99,,,0.00,0.000000,,2013-01-15 10:42:00,
2013-01-15 02:52:00,36.0,35.0,30.62,West,262,7.0,13.0,97,-99.99,,,0.00,0.000000,,2013-01-15 10:52:00,
2013-01-15 03:02:00,36.0,35.0,30.62,West,262,7.0,13.0,97,-99.99,,,0.00,0.000000,,2013-01-15 11:02:00,
2013-01-15 03:12:00,36.0,35.0,30.62,West,262,7.0,13.0,97,-99.99,,,0.00,0.000000,,2013-01-15 11:12:00,
2013-01-15 03:42:00,36.0,35.0,30.64,West,263,6.0,11.0,96,-99.99,,,0.00,0.000000,,2013-01-15 11:42:00,
2013-01-15 03:53:00,36.0,35.0,30.64,West,263,6.0,11.0,96,-99.99,,,0.00,0.000000,,2013-01-15 11:53:00,
2013-01-15 04:02:00,36.0,35.0,30.64,West,263,6.0,11.0,96,-99.99,,,0.00,0.000000,,2013-01-15 12:02:00,
2013-01-15 04:12:00,36.0,35.0,30.64,West,263,6.0,11.0,96,-99.99,,,0.00,0.000000,,2013-01-15 12:12:00,
2013-01-15 04:42:00,36.0,35.0,30.64,West,267,5.0,11.0,96,-99.99,,,0.00,0.000000,,2013-01-15 12:42:00,
2013-01-15 04:53:00,36.0,35.0,30.64,West,267,5.0,11.0,96,-99.99,,,0.00,0.000000,,2013-01-15 12:53:00,
2013-01-15 05:02:00,36.0,35.0,30.64,West,267,5.0,11.0,96,-99.99,,,0.00,0.000000,,2013-01-15 13:02:00,
2013-01-15 05:12:00,36.0,35.0,30.64,West,267,5.0,11.0,96,-99.99,,,0.00,0.000000,,2013-01-15 13:12:00,
2013-01-15 05:33:00,36.0,35.0,30.63,West,261,5.0,10.0,96,-99.99,,,0.00,0.000000,,2013-01-15 13:33:00,
2013-01-15 05:42:00,36.0,35.0,30.63,West,261,5.0,10.0,96,-99.99,,,0.00,0.000000,,2013-01-15 13:42:00,
2013-01-15 05:53:00,36.0,35.0,30.63,West,261,5.0,10.0,96,-99.99,,,0.00,0.000000,,2013-01-15 13:53:00,
2013-01-15 06:02:00,36.0,35.0,30.63,West,261,5.0,10.0,96,-99.99,,,0.00,0.000000,,2013-01-15 14:02:00,
2013-01-15 06:12:00,36.0,35.0,30.63,West,261,5.0,10.0,96,-99.99,,,0.00,0.000000,,2013-01-15 14:12:00,
2013-01-15 06:43:00,36.0,36.0,30.64,WSW,244,5.0,10.0,96,-99.99,,,0.00,0.000000,,2013-01-15 14:43:00,
2013-01-15 06:53:00,36.0,36.0,30.64,WSW,244,5.0,10.0,96,-99.99,,,0.00,0.000000,,2013-01-15 14:53:00,
2013-01-15 07:03:00,36.0,36.0,30.64,WSW,244,5.0,10.0,96,-99.99,,,0.00,0.000000,,2013-01-15 15:03:00,
2013-01-15 07:12:00,36.0,36.0,30.64,WSW,244,5.0,10.0,96,-99.99,,,0.00,0.000000,,2013-01-15 15:12:00,
2013-01-15 07:33:00,37.0,36.0,30.66,WSW,244,5.0,10.0,96,-99.99,,,0.00,0.000000,,2013-01-15 15:33:00,
2013-01-15 07:43:00,37.0,36.0,30.66,WSW,244,5.0,10.0,96,-99.99,,,0.00,0.000000,,2013-01-15 15:43:00,
2013-01-15 07:53:00,37.0,36.0,30.66,WSW,244,5.0,10.0,96,-99.99,,,0.00,0.000000,,2013-01-15 15:53:00,
2013-01-15 08:02:00,37.0,36.0,30.66,WSW,244,5.0,10.0,96,-99.99,,,0.00,0.000000,,2013-01-15 16:02:00,
2013-01-15 08:12:00,37.0,36.0,30.66,WSW,244,5.0,10.0,96,-99.99,,,0.00,0.000000,,2013-01-15 16:12:00,
2013-01-15 08:42:00,36.0,35.0,30.68,WSW,252,6.0,11.0,96,-99.99,,,0.00,6.510000,,2013-01-15 16:42:00,
2013-01-15 08:53:00,36.0,35.0,30.68,WSW,252,6.0,11.0,96,-99.99,,,0.00,6.510000,,2013-01-15 16:53:00,
2013-01-15 09:03:00,36.0,35.0,30.68,WSW,252,6.0,11.0,96,-99.99,,,0.00,6.510000,,2013-01-15 17:03:00,
2013-01-15 09:12:00,36.0,35.0,30.68,WSW,252,6.0,11.0,96,-99.99,,,0.00,6.510000,,2013-01-15 17:12:00,
2013-01-15 09:42:00,38.0,37.0,30.69,WSW,237,3.0,7.0,95,-99.99,,,0.00,281.140015,,2013-01-15 17:42:00,
2013-01-15 09:53:00,38.0,37.0,30.69,WSW,237,3.0,7.0,95,-99.99,,,0.00,281.140015,,2013-01-15 17:53:00,
2013-01-15 10:02:00,38.0,37.0,30.69,WSW,237,3.0,7.0,95,-99.99,,,0.00,281.140015,,2013-01-15 18:02:00,
2013-01-15 10:12:00,38.0,37.0,30.69,WSW,237,3.0,7.0,95,-99.99,,,0.00,281.140015,,2013-01-15 18:12:00,
2013-01-15 10:42:00,38.0,36.0,30.71,WSW,250,4.0,9.0,93,-99.99,,,0.00,120.400002,,2013-01-15 18:42:00,
2013-01-15 10:53:00,38.0,36.0,30.71,WSW,250,4.0,9.0,93,-99.99,,,0.00,120.400002,,2013-01-15 18:53:00,
2013-01-15 11:03:00,38.0,36.0,30.71,WSW,250,4.0,9.0,93,-99.99,,,0.00,120.400002,,2013-01-15 19:03:00,
2013-01-15 11:12:00,38.0,36.0,30.71,WSW,250,4.0,9.0,93,-99.99,,,0.00,120.400002,,2013-01-15 19:12:00,
2013-01-15 11:42:00,41.0,38.0,30.70,WSW,246,5.0,10.0,87,-99.99,,,0.00,411.540009,,2013-01-15 19:42:00,
2013-01-15 11:53:00,41.0,38.0,30.70,WSW,246,5.0,10.0,87,-99.99,,,0.00,411.540009,,2013-01-15 19:53:00,
2013-01-15 12:03:00,41.0,38.0,30.70,WSW,246,5.0,10.0,87,-99.99,,,0.00,411.540009,,2013-01-15 20:03:00,
2013-01-15 12:12:00,41.0,38.0,30.70,WSW,246,5.0,10.0,87,-99.99,,,0.00,411.540009,,2013-01-15 20:12:00,
2013-01-15 12:43:00,40.0,37.0,30.68,West,266,8.0,15.0,87,-99.99,,,0.00,365.160004,,2013-01-15 20:43:00,
2013-01-15 12:53:00,40.0,37.0,30.68,West,266,8.0,15.0,87,-99.99,,,0.00,365.160004,,2013-01-15 20:53:00,
2013-01-15 13:02:00,40.0,37.0,30.68,West,266,8.0,15.0,87,-99.99,,,0.00,365.160004,,2013-01-15 21:02:00,
2013-01-15 13:12:00,40.0,37.0,30.68,West,266,8.0,15.0,87,-99.99,,,0.00,365.160004,,2013-01-15 21:12:00,
2013-01-15 13:43:00,41.0,37.0,30.67,WSW,257,7.0,14.0,85,-99.99,,,0.00,374.809998,,2013-01-15 21:43:00,
2013-01-15 13:53:00,41.0,37.0,30.67,WSW,257,7.0,14.0,85,-99.99,,,0.00,374.809998,,2013-01-15 21:53:00,
2013-01-15 14:02:00,41.0,37.0,30.67,WSW,257,7.0,14.0,85,-99.99,,,0.00,374.809998,,2013-01-15 22:02:00,
2013-01-15 14:12:00,41.0,37.0,30.67,WSW,257,7.0,14.0,85,-99.99,,,0.00,374.809998,,2013-01-15 22:12:00,
2013-01-15 14:43:00,41.0,37.0,30.67,West,261,9.0,16.0,83,-99.99,,,0.00,313.679993,,2013-01-15 22:43:00,
2013-01-15 14:53:00,41.0,37.0,30.67,West,261,9.0,16.0,83,-99.99,,,0.00,313.679993,,2013-01-15 22:53:00,
2013-01-15 15:02:00,41.0,37.0,30.67,West,261,9.0,16.0,83,-99.99,,,0.00,313.679993,,2013-01-15 23:02:00,
2013-01-15 15:12:00,41.0,37.0,30.67,West,261,9.0,16.0,83,-99.99,,,0.00,313.679993,,2013-01-15 23:12:00,
2013-01-15 15:42:00,41.0,36.0,30.67,WSW,251,8.0,14.0,82,-99.99,,,0.00,209.429993,,2013-01-15 23:42:00,
2013-01-15 15:53:00,41.0,36.0,30.67,WSW,251,8.0,14.0,82,-99.99,,,0.00,209.429993,,2013-01-15 23:53:00,
2013-01-15 16:02:00,41.0,36.0,30.67,WSW,251,8.0,14.0,82,-99.99,,,0.00,209.429993,,2013-01-16 00:02:00,
2013-01-15 16:12:00,41.0,36.0,30.67,WSW,251,8.0,14.0,82,-99.99,,,0.00,209.429993,,2013-01-16 00:12:00,
2013-01-15 16:43:00,39.0,35.0,30.68,WSW,255,8.0,16.0,87,-99.99,,,0.00,32.080002,,2013-01-16 00:43:00,
2013-01-15 16:53:00,39.0,35.0,30.68,WSW,255,8.0,16.0,87,-99.99,,,0.00,32.080002,,2013-01-16 00:53:00,
2013-01-15 17:02:00,39.0,35.0,30.68,WSW,255,8.0,16.0,87,-99.99,,,0.00,32.080002,,2013-01-16 01:02:00,
2013-01-15 17:12:00,39.0,35.0,30.68,WSW,255,8.0,16.0,87,-99.99,,,0.00,32.080002,,2013-01-16 01:12:00,
2013-01-15 17:33:00,38.0,35.0,30.69,West,260,8.0,15.0,88,-99.99,,,-99.99,9.300000,,2013-01-16 01:33:00,
2013-01-15 17:42:00,38.0,35.0,30.68,WSW,251,8.0,14.0,89,-99.99,,,0.00,0.810000,,2013-01-16 01:42:00,
2013-01-15 17:53:00,38.0,35.0,30.68,WSW,251,8.0,14.0,89,-99.99,,,0.00,0.810000,,2013-01-16 01:53:00,
2013-01-15 18:02:00,38.0,35.0,30.68,WSW,251,8.0,14.0,89,-99.99,,,0.00,0.810000,,2013-01-16 02:02:00,
2013-01-15 18:12:00,38.0,35.0,30.68,WSW,251,8.0,14.0,89,-99.99,,,0.00,0.810000,,2013-01-16 02:12:00,
2013-01-15 18:42:00,38.0,35.0,30.68,WSW,256,9.0,17.0,89,-99.99,,,0.00,0.000000,,2013-01-16 02:42:00,
2013-01-15 18:53:00,38.0,35.0,30.68,WSW,256,9.0,17.0,89,-99.99,,,0.00,0.000000,,2013-01-16 02:53:00,
2013-01-15 19:02:00,38.0,35.0,30.68,WSW,256,9.0,17.0,89,-99.99,,,0.00,0.000000,,2013-01-16 03:02:00,
2013-01-15 19:11:00,38.0,35.0,30.68,WSW,256,9.0,17.0,89,-99.99,,,0.00,0.000000,,2013-01-16 03:11:00,
2013-01-15 19:42:00,38.0,35.0,30.69,West,267,7.0,12.0,90,-99.99,,,0.00,0.000000,,2013-01-16 03:42:00,
2013-01-15 19:53:00,38.0,35.0,30.69,West,267,7.0,12.0,90,-99.99,,,0.00,0.000000,,2013-01-16 03:53:00,
2013-01-15 20:02:00,38.0,35.0,30.69,West,267,7.0,12.0,90,-99.99,,,0.00,0.000000,,2013-01-16 04:02:00,
2013-01-15 20:12:00,38.0,35.0,30.69,West,267,7.0,12.0,90,-99.99,,,0.00,0.000000,,2013-01-16 04:12:00,
2013-01-15 20:42:00,37.0,35.0,30.70,West,273,5.0,9.0,89,-99.99,,,0.00,0.000000,,2013-01-16 04:42:00,
2013-01-15 20:52:00,37.0,35.0,30.70,West,273,5.0,9.0,89,-99.99,,,0.00,0.000000,,2013-01-16 04:52:00,
2013-01-15 21:03:00,37.0,35.0,30.70,West,273,5.0,9.0,89,-99.99,,,0.00,0.000000,,2013-01-16 05:03:00,
2013-01-15 21:12:00,37.0,35.0,30.70,West,273,5.0,9.0,89,-99.99,,,0.00,0.000000,,2013-01-16 05:12:00,
2013-01-15 21:42:00,37.0,35.0,30.70,West,263,5.0,9.0,90,-99.99,,,0.00,0.000000,,2013-01-16 05:42:00,
2013-01-15 21:53:00,37.0,35.0,30.70,West,263,5.0,9.0,90,-99.99,,,0.00,0.000000,,2013-01-16 05:53:00,
2013-01-15 22:02:00,37.0,35.0,30.70,West,263,5.0,9.0,90,-99.99,,,0.00,0.000000,,2013-01-16 06:02:00,
2013-01-15 22:11:00,37.0,35.0,30.70,West,263,5.0,9.0,90,-99.99,,,0.00,0.000000,,2013-01-16 06:11:00,
2013-01-15 22:42:00,37.0,34.0,30.70,West,273,4.0,8.0,90,-99.99,,,0.00,0.000000,,2013-01-16 06:42:00,
2013-01-15 22:53:00,37.0,34.0,30.70,West,273,4.0,8.0,90,-99.99,,,0.00,0.000000,,2013-01-16 06:53:00,
2013-01-15 23:02:00,37.0,34.0,30.70,West,273,4.0,8.0,90,-99.99,,,0.00,0.000000,,2013-01-16 07:02:00,
2013-01-15 23:11:00,37.0,34.0,30.70,West,273,4.0,8.0,90,-99.99,,,0.00,0.000000,,2013-01-16 07:11:00,
2013-01-15 23:42:00,37.0,34.0,30.70,West,266,4.0,6.0,90,-99.99,,,0.00,0.000000,,2013-01-16 07:42:00,
2013-01-15 23:52:00,37.0,34.0,30.70,West,266,4.0,6.0,90,-99.99,,,0.00,0.000000,,2013-01-16 07:52:00,